createdAt,value
2018-10-06T00:00:57.503Z,13.41
2018-10-06T00:05:01.172Z,13.41
2018-10-06T00:09:05.665Z,13.39
2018-10-06T00:13:09.368Z,13.32
2018-10-06T00:17:13.108Z,13.30
2018-10-06T00:21:16.868Z,13.29
2018-10-06T00:25:20.367Z,13.28
2018-10-06T00:29:23.877Z,13.25
2018-10-06T00:33:27.703Z,13.23
2018-10-06T00:37:31.512Z,13.19
2018-10-06T00:41:35.104Z,13.17
2018-10-06T00:45:38.996Z,13.16
2018-10-06T00:49:42.671Z,13.16
2018-10-06T00:53:46.425Z,13.14
2018-10-06T00:57:50.844Z,13.07
2018-10-06T01:01:54.455Z,13.03
2018-10-06T01:05:58.016Z,13.00
2018-10-06T01:10:01.652Z,12.99
2018-10-06T01:14:05.280Z,12.98
2018-10-06T01:18:08.870Z,12.96
2018-10-06T01:22:12.547Z,12.95
2018-10-06T01:26:16.153Z,12.86
2018-10-06T01:30:19.742Z,12.80
2018-10-06T01:34:23.441Z,12.70
2018-10-06T01:38:27.086Z,12.67
2018-10-06T01:42:30.668Z,12.62
2018-10-06T01:46:34.242Z,12.57
2018-10-06T01:50:37.817Z,12.56
2018-10-06T01:54:41.439Z,12.53
2018-10-06T01:58:44.992Z,12.51
2018-10-06T02:02:48.536Z,12.52
2018-10-06T02:06:52.501Z,12.52
2018-10-06T02:10:56.101Z,12.48
2018-10-06T02:14:59.636Z,12.43
2018-10-06T02:19:03.425Z,12.42
2018-10-06T02:23:07.342Z,12.43
2018-10-06T02:27:10.920Z,12.40
2018-10-06T02:31:14.464Z,12.40
2018-10-06T02:35:17.996Z,12.35
2018-10-06T02:39:21.608Z,12.35
2018-10-06T02:43:25.092Z,12.33
2018-10-06T07:33:54.872Z,13.50
2018-10-06T07:37:59.917Z,13.63
2018-10-06T07:42:22.804Z,13.75
2018-10-06T07:51:00.669Z,14.04
2018-10-06T07:55:09.478Z,14.17
2018-10-06T07:59:18.671Z,14.29
2018-10-06T08:07:45.833Z,14.64
2018-10-06T08:16:48.597Z,14.97
2018-10-06T08:25:41.463Z,15.30
2018-10-06T08:29:47.100Z,15.47
2018-10-06T18:14:59.871Z,19.81
2018-10-06T18:19:23.557Z,19.77
2018-10-06T18:42:16.949Z,19.56
2018-10-06T18:46:21.207Z,19.51
2018-10-06T18:50:28.359Z,19.49
2018-10-06T18:54:33.065Z,19.45
2018-10-06T18:58:37.610Z,19.44
2018-10-06T19:02:41.530Z,19.44
2018-10-06T19:11:43.725Z,19.41
2018-10-06T19:20:15.974Z,19.32
2018-10-06T19:24:19.884Z,19.30
2018-10-06T19:28:23.604Z,19.26
2018-10-06T19:32:27.675Z,19.23
2018-10-06T19:36:31.547Z,19.23
2018-10-06T19:40:35.774Z,19.23
2018-10-06T19:44:39.774Z,19.24
2018-10-06T19:48:43.677Z,19.21
2018-10-06T19:52:47.884Z,19.17
2018-10-06T19:56:51.823Z,19.17
2018-10-06T20:00:55.661Z,19.15
2018-10-06T20:04:59.542Z,19.16
2018-10-06T20:09:03.897Z,19.16
2018-10-06T20:13:07.626Z,19.14
2018-10-06T20:17:12.018Z,19.14
2018-10-06T20:21:15.850Z,19.11
2018-10-06T20:25:19.947Z,19.09
2018-10-06T20:29:23.826Z,19.07
2018-10-06T20:33:27.660Z,19.05
2018-10-06T20:37:31.532Z,19.05
2018-10-06T20:41:35.596Z,19.03
2018-10-06T20:45:39.779Z,19.03
2018-10-06T20:49:44.329Z,19.03
2018-10-06T20:53:48.462Z,19.04
2018-10-06T20:57:54.398Z,19.02
2018-10-06T21:01:58.431Z,18.99
2018-10-06T21:06:02.304Z,19.00
2018-10-06T21:10:06.158Z,19.00
2018-10-06T21:14:10.433Z,19.02
2018-10-06T21:18:14.420Z,19.00
2018-10-06T21:22:18.689Z,19.00
2018-10-06T21:26:23.270Z,19.00
2018-10-06T21:30:28.244Z,18.98
2018-10-06T21:34:32.338Z,19.01
2018-10-06T21:38:36.487Z,19.01
2018-10-06T21:42:40.765Z,18.99
2018-10-06T21:46:44.984Z,19.00
2018-10-06T21:50:49.381Z,19.02
2018-10-06T21:54:53.638Z,19.05
2018-10-06T21:58:57.567Z,19.08
2018-10-06T22:03:02.751Z,19.11
2018-10-06T22:07:06.823Z,19.13
2018-10-06T22:11:11.085Z,19.14
2018-10-06T22:15:14.971Z,19.14
2018-10-06T22:19:19.354Z,19.11
2018-10-06T22:23:23.308Z,19.08
2018-10-06T22:27:27.332Z,19.03
2018-10-06T22:31:31.414Z,18.99
2018-10-06T22:35:35.502Z,18.95
2018-10-06T22:39:39.667Z,18.95
2018-10-06T22:43:44.777Z,18.95
2018-10-06T22:47:49.717Z,18.93
2018-10-06T22:51:53.830Z,18.92
2018-10-06T22:55:57.856Z,18.89
2018-10-06T23:00:01.975Z,18.85
2018-10-06T23:04:06.319Z,18.81
2018-10-06T23:08:10.602Z,18.83
2018-10-06T23:12:14.790Z,18.81
2018-10-06T23:16:19.256Z,18.81
2018-10-06T23:20:23.624Z,18.81
2018-10-06T23:24:27.932Z,18.77
2018-10-06T23:33:10.480Z,18.75
2018-10-06T23:37:15.008Z,18.72
2018-10-06T23:41:19.944Z,18.71
2018-10-06T23:45:24.752Z,18.70
2018-10-06T23:49:28.861Z,18.71
2018-10-06T23:53:32.975Z,18.67
2018-10-06T23:57:37.043Z,18.66
